Time;durP1;ratioP1;P1;durP2;ratioP2;P2;SDS_P1;SDS_P2;PMS_P1;PMS_P2;Temp;Humidity;BMP_temperature;BMP_pressure;BME280_temperature;BME280_humidity;BME280_pressure;Samples;Min_cycle;Max_cycle;Signal;HPM_P1;HPM_P2
2022/11/20 00:00:19;;;;;;;13.00;7.43;;;2.80;98.90;;;;;;5084485;28;20200;-72
2022/11/20 00:02:46;;;;;;;16.93;9.07;;;2.80;98.80;;;;;;5084368;28;20690;-72
2022/11/20 00:05:13;;;;;;;13.93;8.60;;;2.80;98.80;;;;;;5076708;28;20193;-72
2022/11/20 00:07:40;;;;;;;17.57;9.60;;;2.80;98.80;;;;;;5087393;28;20271;-72
2022/11/20 00:10:07;;;;;;;15.27;8.53;;;2.80;98.80;;;;;;5079981;28;20200;-72
2022/11/20 00:12:34;;;;;;;19.87;10.17;;;2.80;98.70;;;;;;5082889;28;20220;-72
2022/11/20 00:15:03;;;;;;;16.87;9.27;;;2.80;98.70;;;;;;5077935;28;20200;-72
2022/11/20 00:17:30;;;;;;;16.00;8.43;;;2.80;98.70;;;;;;5078786;28;20204;-72
2022/11/20 00:19:57;;;;;;;14.43;8.87;;;2.80;98.70;;;;;;5076667;28;20256;-72
2022/11/20 00:22:24;;;;;;;16.67;8.30;;;2.80;98.70;;;;;;5061839;28;20209;-72
2022/11/20 00:24:51;;;;;;;19.60;8.87;;;2.80;98.60;;;;;;5087849;28;20189;-72
2022/11/20 00:27:18;;;;;;;16.20;8.17;;;2.90;98.60;;;;;;5086206;28;20196;-72
2022/11/20 00:29:45;;;;;;;18.53;9.33;;;2.90;98.60;;;;;;5069789;28;20721;-72
2022/11/20 00:32:16;;;;;;;16.10;8.43;;;2.90;98.60;;;;;;5087035;28;20199;-73
2022/11/20 00:34:43;;;;;;;21.20;10.10;;;2.90;98.60;;;;;;5079406;28;20189;-73
2022/11/20 00:37:10;;;;;;;14.23;8.23;;;2.90;98.50;;;;;;5083001;28;20253;-71
2022/11/20 00:39:37;;;;;;;14.47;8.27;;;2.90;98.50;;;;;;5056799;28;20679;-71
2022/11/20 00:42:04;;;;;;;12.57;7.53;;;2.90;98.40;;;;;;5061040;28;20228;-71
2022/11/20 00:44:31;;;;;;;12.50;6.93;;;2.90;98.50;;;;;;5084067;28;20285;-71
2022/11/20 00:46:58;;;;;;;18.00;8.70;;;3.00;98.50;;;;;;5061877;28;20197;-71
2022/11/20 00:49:26;;;;;;;10.37;6.57;;;3.00;98.40;;;;;;5080693;28;20699;-72
2022/11/20 00:51:53;;;;;;;11.27;6.80;;;3.00;98.40;;;;;;5082017;28;20203;-71
2022/11/20 00:54:20;;;;;;;15.50;8.47;;;3.10;98.40;;;;;;5056801;28;20229;-72
2022/11/20 00:56:47;;;;;;;16.13;8.33;;;3.00;98.30;;;;;;5078077;28;20250;-71
2022/11/20 00:59:15;;;;;;;12.70;7.93;;;3.00;98.20;;;;;;5087863;28;20706;-71
2022/11/20 01:01:42;;;;;;;16.53;8.30;;;3.00;98.20;;;;;;5086952;28;20500;-72
2022/11/20 01:04:09;;;;;;;13.87;8.30;;;3.10;98.20;;;;;;5079491;28;20241;-72
2022/11/20 01:06:39;;;;;;;16.23;8.33;;;3.10;98.20;;;;;;5082685;28;20697;-72
2022/11/20 01:09:12;;;;;;;17.63;9.83;;;3.10;98.00;;;;;;5083517;28;20745;-72
2022/11/20 01:11:41;;;;;;;14.60;7.90;;;3.10;98.00;;;;;;5083821;28;20192;-72
2022/11/20 01:14:11;;;;;;;11.17;6.87;;;3.10;97.90;;;;;;5083935;28;20189;-72
2022/11/20 01:16:40;;;;;;;20.10;9.40;;;3.10;98.00;;;;;;5082781;28;20254;-72
2022/11/20 01:19:08;;;;;;;15.33;8.10;;;3.10;97.80;;;;;;5080920;28;20296;-71
2022/11/20 01:21:38;;;;;;;15.57;7.70;;;3.10;97.80;;;;;;5079048;28;20223;-72
2022/11/20 01:24:07;;;;;;;12.57;7.00;;;3.10;97.80;;;;;;5078922;28;20185;-72
2022/11/20 01:26:36;;;;;;;10.67;5.83;;;3.20;97.90;;;;;;5085736;28;20215;-71
2022/11/20 01:29:04;;;;;;;13.53;7.20;;;3.10;97.70;;;;;;5063702;28;20699;-72
2022/11/20 01:31:33;;;;;;;13.97;7.60;;;3.10;97.70;;;;;;5085565;28;20275;-72
2022/11/20 01:34:02;;;;;;;12.47;6.63;;;3.10;97.70;;;;;;5083440;28;20220;-72
2022/11/20 01:36:31;;;;;;;16.50;7.03;;;3.10;97.70;;;;;;5084690;28;20262;-71
2022/11/20 01:39:02;;;;;;;12.43;7.27;;;3.10;97.60;;;;;;5083869;28;20209;-71
2022/11/20 01:44:18;;;;;;;16.30;6.63;;;3.10;97.60;;;;;;5079484;28;20774;-71
2022/11/20 01:46:53;;;;;;;13.53;6.40;;;3.10;97.60;;;;;;5075618;28;20226;-72
2022/11/20 01:49:24;;;;;;;15.13;7.40;;;3.00;97.50;;;;;;5078783;28;20280;-71
2022/11/20 01:51:53;;;;;;;28.33;10.77;;;3.00;97.50;;;;;;5074762;28;20726;-71
2022/11/20 01:54:29;;;;;;;21.87;8.67;;;3.00;97.40;;;;;;5084588;28;20192;-71
2022/11/20 01:56:59;;;;;;;24.53;10.13;;;3.00;97.40;;;;;;5074296;28;20285;-73
2022/11/20 01:59:28;;;;;;;29.73;10.83;;;3.00;97.40;;;;;;5084617;28;20275;-72
2022/11/20 02:01:55;;;;;;;31.70;11.77;;;3.00;97.50;;;;;;5063448;28;20701;-71
2022/11/20 02:04:23;;;;;;;25.60;10.60;;;3.00;97.20;;;;;;5088514;28;20200;-72
2022/11/20 02:06:54;;;;;;;21.47;9.63;;;3.00;97.30;;;;;;5065736;28;20681;-72
2022/11/20 02:09:23;;;;;;;28.97;10.40;;;3.00;97.20;;;;;;5058356;28;20288;-71
2022/11/20 02:11:50;;;;;;;26.80;11.80;;;3.10;97.20;;;;;;5088393;28;20276;-71
2022/11/20 02:14:16;;;;;;;24.20;10.60;;;3.10;97.20;;;;;;5070264;28;20288;-73
2022/11/20 02:16:47;;;;;;;23.40;10.10;;;3.10;97.20;;;;;;5087963;28;20180;-72
2022/11/20 02:19:23;;;;;;;29.70;11.70;;;3.00;97.10;;;;;;5072201;28;20208;-72
2022/11/20 02:21:57;;;;;;;23.33;11.07;;;3.10;97.00;;;;;;5084567;28;20200;-72
2022/11/20 02:24:25;;;;;;;20.57;9.87;;;3.00;96.90;;;;;;5089265;28;20196;-73
2022/11/20 02:26:55;;;;;;;22.60;9.03;;;3.00;97.00;;;;;;5086155;28;20189;-73
2022/11/20 02:29:26;;;;;;;15.93;8.93;;;3.00;97.00;;;;;;5083516;28;20243;-72
2022/11/20 02:31:56;;;;;;;15.63;8.00;;;3.00;97.00;;;;;;5082734;28;20216;-72
2022/11/20 02:34:23;;;;;;;12.90;7.00;;;3.00;97.10;;;;;;5078315;28;20231;-72
2022/11/20 02:36:52;;;;;;;13.20;7.43;;;3.10;97.10;;;;;;5088041;28;20673;-72
2022/11/20 02:39:20;;;;;;;12.90;7.03;;;2.50;96.80;;;;;;5091199;28;20212;-72
2022/11/20 02:41:48;;;;;;;9.80;6.30;;;3.10;96.90;;;;;;5083874;28;20620;-72
2022/11/20 02:44:15;;;;;;;11.07;6.17;;;3.10;96.90;;;;;;5090916;28;20218;-71
2022/11/20 02:46:42;;;;;;;17.87;9.37;;;3.00;96.90;;;;;;5063617;28;20288;-72
2022/11/20 02:49:09;;;;;;;21.30;10.53;;;3.10;96.90;;;;;;5058221;28;20291;-72
2022/11/20 02:51:36;;;;;;;17.57;8.47;;;3.10;96.70;;;;;;5085046;28;20279;-72
2022/11/20 02:54:04;;;;;;;19.20;9.50;;;3.10;96.80;;;;;;5066894;28;20192;-72
2022/11/20 02:56:31;;;;;;;23.20;11.17;;;3.10;96.70;;;;;;5087189;28;20589;-72
2022/11/20 02:59:00;;;;;;;25.00;11.97;;;3.10;96.60;;;;;;5082144;28;20235;-72
2022/11/20 03:01:27;;;;;;;24.57;12.47;;;3.00;96.50;;;;;;5061439;28;20616;-72
2022/11/20 03:03:54;;;;;;;22.17;10.93;;;3.00;96.50;;;;;;5088744;28;20199;-72
2022/11/20 03:06:21;;;;;;;26.70;13.07;;;2.90;96.50;;;;;;5066384;28;20563;-72
2022/11/20 03:08:48;;;;;;;22.10;11.10;;;2.90;96.60;;;;;;5078475;28;20192;-72
2022/11/20 03:11:15;;;;;;;20.13;9.90;;;2.90;96.70;;;;;;5085796;28;20193;-72
2022/11/20 03:13:48;;;;;;;19.10;9.73;;;2.90;96.70;;;;;;5081377;28;20197;-72
2022/11/20 03:16:19;;;;;;;17.63;8.90;;;2.90;96.80;;;;;;5088066;28;20185;-72
2022/11/20 03:18:46;;;;;;;25.83;11.43;;;2.90;96.70;;;;;;5058607;28;20209;-71
2022/11/20 03:21:15;;;;;;;25.27;12.70;;;3.00;96.70;;;;;;5070285;28;20710;-72
2022/11/20 03:23:42;;;;;;;30.97;13.27;;;2.90;96.60;;;;;;5061914;28;20203;-71
2022/11/20 03:26:11;;;;;;;26.80;12.53;;;2.90;96.70;;;;;;5085501;28;20271;-72
2022/11/20 03:28:38;;;;;;;16.93;9.60;;;2.80;96.70;;;;;;5066607;28;20267;-72
2022/11/20 03:31:07;;;;;;;15.70;9.40;;;2.80;96.70;;;;;;5086568;28;20192;-72
2022/11/20 03:33:38;;;;;;;18.27;8.50;;;2.80;96.70;;;;;;5078978;28;20575;-71
2022/11/20 03:36:07;;;;;;;14.13;7.40;;;2.90;96.80;;;;;;5055093;28;20288;-72
2022/11/20 03:38:35;;;;;;;11.50;7.10;;;2.90;96.80;;;;;;5080999;28;20294;-72
2022/11/20 03:41:03;;;;;;;12.60;6.63;;;2.90;96.80;;;;;;5084371;28;20193;-71
2022/11/20 03:43:30;;;;;;;20.50;9.93;;;3.00;96.80;;;;;;5076971;28;20198;-72
2022/11/20 03:45:57;;;;;;;26.50;13.07;;;3.00;96.70;;;;;;5081439;28;20201;-72
2022/11/20 03:48:24;;;;;;;18.93;10.87;;;3.00;96.70;;;;;;5060010;28;20277;-71
2022/11/20 03:50:53;;;;;;;24.63;12.63;;;3.00;96.60;;;;;;5090128;28;20206;-71
2022/11/20 03:53:21;;;;;;;22.37;11.40;;;3.00;96.90;;;;;;5088862;28;20217;-72
2022/11/20 03:55:52;;;;;;;20.20;9.73;;;2.90;96.60;;;;;;5086046;28;20269;-71
2022/11/20 03:58:19;;;;;;;18.10;8.93;;;3.00;96.70;;;;;;5089886;28;20201;-72
2022/11/20 04:00:46;;;;;;;13.80;8.07;;;2.90;96.70;;;;;;5078078;28;20188;-71
2022/11/20 04:03:13;;;;;;;16.47;8.83;;;2.90;96.60;;;;;;5085952;28;20883;-72
2022/11/20 04:05:40;;;;;;;28.73;14.13;;;3.00;96.70;;;;;;5079809;28;20243;-71
2022/11/20 04:08:08;;;;;;;27.13;13.00;;;3.00;96.50;;;;;;5076915;28;20239;-72
2022/11/20 04:10:35;;;;;;;33.03;15.97;;;3.20;96.60;;;;;;5084976;28;20194;-71
2022/11/20 04:13:02;;;;;;;28.23;14.17;;;2.90;96.40;;;;;;5084635;28;20638;-71
2022/11/20 04:15:29;;;;;;;27.93;14.40;;;3.10;96.60;;;;;;5086844;28;20283;-71
2022/11/20 04:17:56;;;;;;;28.90;14.67;;;2.90;96.50;;;;;;5084852;28;20271;-72
2022/11/20 04:20:23;;;;;;;34.27;16.77;;;2.90;96.50;;;;;;5079012;28;20236;-71
2022/11/20 04:22:50;;;;;;;30.37;15.33;;;2.90;96.40;;;;;;5088786;28;20191;-72
2022/11/20 04:25:18;;;;;;;29.70;13.90;;;2.80;96.40;;;;;;5064203;28;20211;-71
2022/11/20 04:27:45;;;;;;;21.87;11.67;;;2.80;96.50;;;;;;5083866;28;20192;-71
2022/11/20 04:30:13;;;;;;;21.50;11.30;;;2.80;96.50;;;;;;5078864;28;20726;-72
2022/11/20 04:32:40;;;;;;;20.63;9.93;;;2.80;96.50;;;;;;5059556;28;20200;-71
2022/11/20 04:35:07;;;;;;;15.70;8.73;;;2.80;96.60;;;;;;5065485;28;20556;-72
2022/11/20 04:37:34;;;;;;;15.17;8.23;;;2.80;96.60;;;;;;5064548;28;20192;-71
2022/11/20 04:40:01;;;;;;;21.43;10.93;;;2.80;96.50;;;;;;5066249;28;20329;-72
2022/11/20 04:42:30;;;;;;;18.97;9.80;;;2.40;96.30;;;;;;5083374;28;20208;-71
2022/11/20 04:44:57;;;;;;;20.07;10.07;;;2.70;96.50;;;;;;5086742;28;20193;-72
2022/11/20 04:47:24;;;;;;;19.53;9.97;;;2.70;96.50;;;;;;5077669;28;20195;-72
2022/11/20 04:49:51;;;;;;;18.50;9.40;;;2.70;96.50;;;;;;5059556;28;20626;-72
2022/11/20 04:52:18;;;;;;;15.87;8.93;;;3.00;96.60;;;;;;5084269;28;20201;-73
2022/11/20 04:54:45;;;;;;;17.50;9.50;;;2.60;96.40;;;;;;5080095;28;20266;-71
2022/11/20 04:57:15;;;;;;;15.80;8.00;;;2.60;96.40;;;;;;5076595;28;20673;-71
2022/11/20 04:59:43;;;;;;;15.40;8.50;;;2.60;96.40;;;;;;5082280;28;20216;-72
2022/11/20 05:02:11;;;;;;;22.50;11.07;;;2.60;96.40;;;;;;5083795;28;20283;-72
2022/11/20 05:04:38;;;;;;;18.67;9.20;;;2.70;96.50;;;;;;5085552;28;20214;-70
2022/11/20 05:07:05;;;;;;;15.20;8.70;;;2.60;96.40;;;;;;5088684;28;20253;-72
2022/11/20 05:09:33;;;;;;;17.13;9.43;;;2.60;96.40;;;;;;5079310;28;20231;-71
2022/11/20 05:12:00;;;;;;;17.30;9.03;;;2.60;96.40;;;;;;5088062;28;20234;-71
2022/11/20 05:14:27;;;;;;;16.80;8.73;;;2.60;96.40;;;;;;5074983;28;20219;-72
2022/11/20 05:16:55;;;;;;;14.60;8.07;;;2.60;96.40;;;;;;5084156;28;20644;-72
2022/11/20 05:19:22;;;;;;;16.63;9.60;;;2.60;96.30;;;;;;5081212;28;20219;-72
2022/11/20 05:21:49;;;;;;;16.37;9.07;;;2.60;96.20;;;;;;5077396;28;20666;-71
2022/11/20 05:24:16;;;;;;;19.17;10.33;;;2.60;96.20;;;;;;5080283;28;20717;-72
2022/11/20 05:26:43;;;;;;;17.43;10.10;;;2.60;96.20;;;;;;5059417;28;20647;-71
2022/11/20 05:29:11;;;;;;;20.03;10.13;;;2.50;96.20;;;;;;5055088;28;20185;-71
2022/11/20 05:31:40;;;;;;;18.83;9.43;;;2.50;96.20;;;;;;5087121;28;20196;-72
2022/11/20 05:34:09;;;;;;;17.73;8.87;;;2.50;96.20;;;;;;5085250;28;20188;-71
2022/11/20 05:36:36;;;;;;;19.77;10.40;;;2.50;96.20;;;;;;5068114;28;20208;-71
2022/11/20 05:39:03;;;;;;;22.20;10.97;;;2.50;96.20;;;;;;5080252;28;20223;-71
2022/11/20 05:41:30;;;;;;;20.40;10.80;;;2.50;96.20;;;;;;5083801;28;20278;-72
2022/11/20 05:43:58;;;;;;;24.87;11.13;;;2.40;96.20;;;;;;5079516;28;20239;-71
2022/11/20 05:46:26;;;;;;;23.03;11.97;;;2.40;96.30;;;;;;5064120;28;20214;-72
2022/11/20 05:48:53;;;;;;;20.20;10.57;;;2.40;96.30;;;;;;5083124;28;20541;-72
2022/11/20 05:51:21;;;;;;;23.20;11.10;;;2.30;96.30;;;;;;5069987;28;20637;-72
2022/11/20 05:53:48;;;;;;;20.73;10.10;;;2.30;96.40;;;;;;5084966;28;20303;-72
2022/11/20 05:56:18;;;;;;;20.20;10.60;;;2.40;96.40;;;;;;5077774;28;20216;-71
2022/11/20 05:58:45;;;;;;;20.57;9.57;;;2.40;96.40;;;;;;5084494;28;20223;-72
2022/11/20 06:01:14;;;;;;;16.20;8.73;;;2.30;96.30;;;;;;5087776;28;20269;-73
2022/11/20 06:03:45;;;;;;;25.30;12.10;;;2.40;96.40;;;;;;5056070;28;20223;-72
2022/11/20 06:06:13;;;;;;;19.07;10.20;;;2.40;96.30;;;;;;5063709;28;20572;-72
2022/11/20 06:08:42;;;;;;;26.93;12.93;;;2.40;96.30;;;;;;5081278;28;20185;-72
2022/11/20 06:11:11;;;;;;;23.50;11.83;;;2.50;96.40;;;;;;5084590;28;20180;-72
2022/11/20 06:13:38;;;;;;;20.53;10.90;;;2.40;96.30;;;;;;5067406;28;20245;-71
2022/11/20 06:16:05;;;;;;;25.60;12.07;;;2.50;96.40;;;;;;5070478;28;20192;-72
2022/11/20 06:18:33;;;;;;;23.03;11.50;;;2.50;96.30;;;;;;5077049;28;20201;-72
2022/11/20 06:21:02;;;;;;;26.47;12.57;;;2.50;96.30;;;;;;5062812;28;20651;-72
2022/11/20 06:23:33;;;;;;;27.90;13.50;;;2.60;96.30;;;;;;5081473;28;20260;-71
2022/11/20 06:26:04;;;;;;;28.80;14.43;;;2.60;96.30;;;;;;5074430;28;20691;-72
2022/11/20 06:28:31;;;;;;;25.23;11.57;;;2.60;96.20;;;;;;5084088;28;20679;-71
2022/11/20 06:30:58;;;;;;;31.57;14.60;;;2.60;96.20;;;;;;5086923;28;20219;-71
2022/11/20 06:33:25;;;;;;;39.67;17.77;;;2.60;96.20;;;;;;5086440;28;20289;-72
2022/11/20 06:35:52;;;;;;;26.87;13.83;;;2.60;96.10;;;;;;5084091;28;20280;-72
2022/11/20 06:38:19;;;;;;;29.80;13.83;;;2.60;96.20;;;;;;5078509;28;20275;-71
2022/11/20 06:40:46;;;;;;;23.13;11.80;;;2.60;96.20;;;;;;5079104;28;20349;-71
2022/11/20 06:43:15;;;;;;;23.10;10.73;;;2.70;96.20;;;;;;5083114;28;20196;-71
2022/11/20 06:45:42;;;;;;;20.13;10.07;;;2.70;96.30;;;;;;5081756;28;20246;-72
2022/11/20 06:48:09;;;;;;;26.53;12.23;;;2.80;96.20;;;;;;5081193;28;20223;-73
2022/11/20 06:50:38;;;;;;;28.23;14.83;;;2.80;96.20;;;;;;5063301;28;20189;-72
2022/11/20 06:53:06;;;;;;;25.73;12.40;;;2.80;96.20;;;;;;5080197;28;20214;-72
2022/11/20 06:55:33;;;;;;;20.50;10.80;;;2.80;96.20;;;;;;5091347;28;20199;-71
2022/11/20 06:58:00;;;;;;;23.27;10.13;;;2.90;96.20;;;;;;5065208;28;20284;-71
2022/11/20 07:00:28;;;;;;;18.23;9.87;;;2.90;96.10;;;;;;5084595;28;20675;-72
2022/11/20 07:02:55;;;;;;;18.97;9.97;;;2.90;95.90;;;;;;5064104;28;20694;-71
2022/11/20 07:05:22;;;;;;;27.17;13.30;;;3.00;96.00;;;;;;5086861;28;20656;-72
2022/11/20 07:07:52;;;;;;;21.20;11.40;;;2.80;95.90;;;;;;5085546;28;20612;-72
2022/11/20 07:10:19;;;;;;;27.73;13.47;;;2.90;96.00;;;;;;5070668;28;20206;-72
2022/11/20 07:12:51;;;;;;;29.67;14.10;;;2.90;95.90;;;;;;5079160;28;20220;-71
2022/11/20 07:15:18;;;;;;;23.70;12.17;;;2.90;95.80;;;;;;5085220;28;20191;-71
2022/11/20 07:17:47;;;;;;;22.57;11.47;;;2.90;95.90;;;;;;5086674;28;20700;-71
2022/11/20 07:20:14;;;;;;;18.20;10.13;;;3.00;95.90;;;;;;5057273;28;20644;-71
2022/11/20 07:22:42;;;;;;;19.90;9.90;;;3.00;95.90;;;;;;5085893;28;20552;-72
2022/11/20 07:25:10;;;;;;;16.83;9.30;;;3.00;95.80;;;;;;5084010;28;20271;-72
2022/11/20 07:27:37;;;;;;;16.10;8.60;;;3.00;95.80;;;;;;5090068;28;20275;-71
2022/11/20 07:30:05;;;;;;;15.73;8.10;;;3.10;95.80;;;;;;5076222;28;20599;-71
2022/11/20 07:32:32;;;;;;;11.33;7.20;;;3.10;95.80;;;;;;5081322;28;20322;-71
2022/11/20 07:35:01;;;;;;;12.17;6.93;;;3.20;95.80;;;;;;5082803;28;20212;-72
2022/11/20 07:37:27;;;;;;;14.03;8.30;;;3.20;95.70;;;;;;5079269;28;20282;-72
2022/11/20 07:39:54;;;;;;;19.90;8.70;;;3.20;95.70;;;;;;5082700;28;20212;-71
2022/11/20 07:42:24;;;;;;;16.90;8.60;;;3.20;95.70;;;;;;5080608;28;20197;-70
2022/11/20 07:44:51;;;;;;;16.47;8.77;;;3.30;95.80;;;;;;5070034;28;20204;-71
2022/11/20 07:47:18;;;;;;;17.37;9.23;;;3.30;95.70;;;;;;5089275;28;20291;-72
2022/11/20 07:49:45;;;;;;;14.13;8.07;;;3.30;95.70;;;;;;5089006;28;20270;-72
2022/11/20 07:52:14;;;;;;;14.77;8.20;;;3.20;95.70;;;;;;5085459;28;20284;-72
2022/11/20 07:54:40;;;;;;;12.43;7.17;;;3.20;95.80;;;;;;5062242;28;20201;-71
2022/11/20 07:57:07;;;;;;;13.57;7.80;;;3.20;95.80;;;;;;5084941;28;20200;-71
2022/11/20 07:59:34;;;;;;;14.20;7.73;;;3.30;95.80;;;;;;5088970;28;20193;-72
2022/11/20 08:02:01;;;;;;;12.43;6.93;;;3.30;95.80;;;;;;5086242;28;20200;-72
2022/11/20 08:04:28;;;;;;;14.43;7.80;;;3.30;95.80;;;;;;5067562;28;20287;-71
2022/11/20 08:06:55;;;;;;;17.20;9.17;;;3.30;95.80;;;;;;5085703;28;20276;-72
2022/11/20 08:09:24;;;;;;;31.43;14.10;;;3.40;95.90;;;;;;5086665;28;20651;-72
2022/11/20 08:14:38;;;;;;;41.03;17.47;;;3.30;95.90;;;;;;5089407;28;20651;-73
2022/11/20 08:17:05;;;;;;;30.70;14.73;;;3.30;95.80;;;;;;5080882;28;20192;-72
2022/11/20 08:19:32;;;;;;;34.43;15.37;;;3.20;95.80;;;;;;5080491;28;20221;-73
2022/11/20 08:21:59;;;;;;;33.30;15.37;;;3.30;96.30;;;;;;5086459;28;20266;-72
2022/11/20 08:24:31;;;;;;;25.67;13.00;;;3.30;96.00;;;;;;5089103;28;20193;-73
2022/11/20 08:26:58;;;;;;;30.73;14.10;;;3.30;96.00;;;;;;5060056;28;20535;-72
2022/11/20 08:29:26;;;;;;;28.70;14.53;;;3.30;96.10;;;;;;5083972;28;20204;-73
2022/11/20 08:31:53;;;;;;;29.87;14.43;;;3.30;96.00;;;;;;5067754;28;20610;-72
2022/11/20 08:34:20;;;;;;;25.37;13.10;;;3.40;96.10;;;;;;5075153;28;20207;-73
2022/11/20 08:36:47;;;;;;;26.57;12.10;;;3.40;96.10;;;;;;5081889;28;20566;-72
2022/11/20 08:39:15;;;;;;;26.27;12.87;;;3.40;96.10;;;;;;5078800;28;20679;-71
2022/11/20 08:41:43;;;;;;;29.90;13.93;;;3.40;96.10;;;;;;5082756;28;20297;-72
2022/11/20 08:44:12;;;;;;;37.00;17.17;;;3.50;96.10;;;;;;5083933;28;20216;-73
2022/11/20 08:46:43;;;;;;;33.27;15.80;;;3.40;96.00;;;;;;5066800;28;20610;-72
2022/11/20 08:49:12;;;;;;;26.83;13.30;;;3.40;96.10;;;;;;5085321;28;20185;-73
2022/11/20 08:51:39;;;;;;;20.43;10.80;;;3.40;96.10;;;;;;5079661;28;20230;-72
2022/11/20 08:54:07;;;;;;;32.43;14.87;;;3.40;96.50;;;;;;5066022;28;20719;-73
2022/11/20 08:56:34;;;;;;;33.80;15.60;;;3.50;96.10;;;;;;5083580;28;20215;-72
2022/11/20 08:59:03;;;;;;;34.73;15.77;;;3.50;96.10;;;;;;5065617;28;20204;-72
2022/11/20 09:01:30;;;;;;;28.13;13.07;;;3.40;96.10;;;;;;5084016;28;20212;-72
2022/11/20 09:03:57;;;;;;;25.87;12.67;;;3.50;96.10;;;;;;5076361;28;20193;-72
2022/11/20 09:06:24;;;;;;;38.73;18.53;;;3.40;96.10;;;;;;5078110;28;20631;-73
2022/11/20 09:08:53;;;;;;;43.73;18.50;;;3.40;96.20;;;;;;5083350;28;20284;-73
2022/11/20 09:11:20;;;;;;;42.10;18.43;;;3.40;96.20;;;;;;5063775;28;20613;-72
2022/11/20 09:13:47;;;;;;;40.50;18.57;;;3.30;96.20;;;;;;5087286;28;20666;-72
2022/11/20 09:16:16;;;;;;;34.83;16.63;;;3.30;96.30;;;;;;5081498;28;20683;-73
2022/11/20 09:18:43;;;;;;;36.30;16.57;;;3.30;96.40;;;;;;5082205;28;20184;-73
2022/11/20 09:21:12;;;;;;;40.17;15.97;;;3.30;96.50;;;;;;5082666;28;20315;-72
2022/11/20 09:23:39;;;;;;;31.20;13.73;;;3.30;96.50;;;;;;5082744;28;20189;-73
2022/11/20 09:26:08;;;;;;;27.63;13.13;;;3.40;96.50;;;;;;5080513;28;20211;-73
2022/11/20 09:28:35;;;;;;;31.27;13.67;;;3.40;96.60;;;;;;5084870;28;20555;-72
2022/11/20 09:31:06;;;;;;;26.57;12.93;;;3.40;96.50;;;;;;5085065;28;20192;-71
2022/11/20 09:33:35;;;;;;;29.07;12.37;;;3.50;96.60;;;;;;5075997;28;20508;-72
2022/11/20 09:36:02;;;;;;;28.40;13.00;;;3.50;96.50;;;;;;5078004;28;20590;-72
2022/11/20 09:38:29;;;;;;;35.67;15.97;;;3.60;96.50;;;;;;5069885;28;20283;-73
2022/11/20 09:40:59;;;;;;;30.90;14.67;;;3.60;96.50;;;;;;5084275;28;20301;-74
2022/11/20 09:43:41;;;;;;;30.73;13.10;;;3.90;96.70;;;;;;5067447;28;20253;-73
2022/11/20 09:46:15;;;;;;;27.80;13.07;;;3.60;96.50;;;;;;5068139;28;20195;-72
2022/11/20 09:49:03;;;;;;;40.43;16.77;;;3.60;96.50;;;;;;5074101;28;20276;-73
2022/11/20 09:51:41;;;;;;;31.73;14.57;;;3.50;96.80;;;;;;5085576;28;20242;-72
2022/11/20 09:54:17;;;;;;;50.03;21.03;;;3.50;96.60;;;;;;5080637;28;20285;-73
2022/11/20 09:56:47;;;;;;;39.30;17.40;;;3.50;96.70;;;;;;5077766;28;20180;-72
2022/11/20 09:59:29;;;;;;;34.83;16.07;;;3.50;96.80;;;;;;5074101;28;20268;-71
2022/11/20 10:01:57;;;;;;;26.17;13.07;;;3.50;96.90;;;;;;5081502;28;20219;-72
2022/11/20 10:04:26;;;;;;;43.97;19.10;;;3.50;96.90;;;;;;5083551;28;20626;-71
2022/11/20 10:07:03;;;;;;;48.83;20.63;;;3.60;97.00;;;;;;5065839;28;20666;-78
2022/11/20 10:09:33;;;;;;;46.57;19.87;;;3.60;97.00;;;;;;5081544;28;20218;-76
2022/11/20 10:12:13;;;;;;;40.57;19.10;;;3.50;97.10;;;;;;5060695;28;20708;-76
2022/11/20 10:14:56;;;;;;;39.73;17.37;;;3.50;97.10;;;;;;5080188;28;20246;-77
2022/11/20 10:18:01;;;;;;;34.03;16.53;;;3.60;97.10;;;;;;5090327;28;20313;-82
2022/11/20 10:20:40;;;;;;;34.30;15.93;;;3.50;97.10;;;;;;5079690;28;20261;-81
2022/11/20 10:23:29;;;;;;;36.80;17.20;;;3.50;97.10;;;;;;5069504;28;20253;-80
2022/11/20 10:26:03;;;;;;;36.63;16.23;;;3.50;97.20;;;;;;5085866;28;20208;-78
2022/11/20 10:28:55;;;;;;;34.03;15.87;;;3.50;97.20;;;;;;5091392;28;20607;-79
2022/11/20 10:31:30;;;;;;;49.87;22.03;;;3.50;97.30;;;;;;5066005;28;20200;-79
2022/11/20 10:34:00;;;;;;;53.93;23.37;;;3.50;97.30;;;;;;5083089;28;20303;-80
2022/11/20 10:36:34;;;;;;;49.40;21.80;;;3.60;97.40;;;;;;5070403;28;20250;-78
2022/11/20 10:39:06;;;;;;;39.97;19.80;;;3.50;97.40;;;;;;5064421;28;20635;-80
2022/11/20 10:41:38;;;;;;;42.70;19.97;;;3.50;97.50;;;;;;5069054;28;20208;-80
2022/11/20 10:44:10;;;;;;;37.80;18.30;;;3.50;97.60;;;;;;5061263;28;20208;-79
2022/11/20 10:46:42;;;;;;;47.43;21.33;;;3.50;97.60;;;;;;5083901;28;20616;-81
2022/11/20 10:49:16;;;;;;;50.43;21.03;;;4.80;98.60;;;;;;5066338;28;20215;-78
2022/11/20 10:51:58;;;;;;;41.63;19.23;;;3.50;98.30;;;;;;5085125;28;20194;-83
2022/11/20 10:54:36;;;;;;;35.83;16.43;;;3.60;97.80;;;;;;5081958;28;20241;-79
2022/11/20 10:57:11;;;;;;;44.30;20.83;;;3.50;97.80;;;;;;5083148;28;20212;-83
2022/11/20 11:00:00;;;;;;;41.83;19.40;;;3.50;97.90;;;;;;5078825;28;20192;-81
2022/11/20 11:02:37;;;;;;;41.87;17.80;;;3.50;97.90;;;;;;5085004;28;20225;-80
2022/11/20 11:05:26;;;;;;;31.97;16.33;;;3.60;98.00;;;;;;5085284;28;20192;-80
2022/11/20 11:08:00;;;;;;;35.00;15.80;;;3.50;97.90;;;;;;5060089;28;20215;-79
2022/11/20 11:10:33;;;;;;;29.33;13.47;;;3.60;98.00;;;;;;5059231;28;20251;-80
2022/11/20 11:13:01;;;;;;;32.97;14.70;;;3.50;98.00;;;;;;5080042;28;20219;-78
2022/11/20 11:15:32;;;;;;;32.53;15.10;;;3.50;98.00;;;;;;5078835;28;20208;-82
2022/11/20 11:18:04;;;;;;;46.37;20.63;;;3.60;98.20;;;;;;5071616;28;20444;-83
2022/11/20 11:20:36;;;;;;;48.50;22.33;;;3.70;98.10;;;;;;5066509;28;20703;-81
2022/11/20 11:23:05;;;;;;;54.37;24.90;;;4.30;99.20;;;;;;5059682;28;20196;-81
2022/11/20 11:25:34;;;;;;;51.00;22.00;;;3.60;98.20;;;;;;5085448;28;20288;-81
2022/11/20 11:28:20;;;;;;;42.20;19.20;;;4.10;98.40;;;;;;5057362;28;20219;-80
2022/11/20 11:30:49;;;;;;;34.90;16.73;;;3.10;98.40;;;;;;5077574;28;20184;-80
2022/11/20 11:33:21;;;;;;;33.83;15.67;;;4.90;99.10;;;;;;5063839;28;20211;-80
2022/11/20 11:35:52;;;;;;;30.63;14.37;;;3.80;98.40;;;;;;5079634;28;20249;-84
2022/11/20 11:38:29;;;;;;;30.87;14.27;;;3.60;98.30;;;;;;5059704;28;20537;-84
2022/11/20 11:40:58;;;;;;;37.90;17.53;;;3.70;98.80;;;;;;5066031;28;20291;-83
2022/11/20 11:46:31;;;;;;;28.63;14.33;;;2.60;98.10;;;;;;5083663;28;20186;-83
2022/11/20 11:49:00;;;;;;;38.53;16.53;;;3.70;98.20;;;;;;5077921;28;20216;-83
2022/11/20 11:51:46;;;;;;;42.20;18.77;;;4.50;99.10;;;;;;5059344;28;20192;-82
2022/11/20 11:54:39;;;;;;;37.63;17.57;;;3.90;98.40;;;;;;5059673;28;20309;-83
2022/11/20 11:57:16;;;;;;;42.17;19.93;;;3.60;99.10;;;;;;5062416;28;20208;-84
2022/11/20 12:03:20;;;;;;;;;;;;;;;;;;;;;
2022/11/20 12:06:02;;;;;;;33.53;16.13;;;3.80;98.70;;;;;;5079927;28;20201;-82
2022/11/20 12:08:38;;;;;;;34.63;15.83;;;3.60;98.90;;;;;;5065652;28;20206;-82
2022/11/20 12:11:20;;;;;;;32.90;15.13;;;3.60;99.10;;;;;;5066568;28;20200;-80
2022/11/20 12:13:58;;;;;;;46.70;21.13;;;3.70;98.40;;;;;;5062029;28;20288;-80
2022/11/20 12:16:28;;;;;;;40.80;19.20;;;3.70;98.40;;;;;;5083497;28;20189;-80
2022/11/20 12:18:55;;;;;;;44.60;20.67;;;3.70;98.40;;;;;;5064568;28;20208;-80
2022/11/20 12:21:38;;;;;;;37.57;17.57;;;4.80;99.20;;;;;;5057487;28;20657;-81
2022/11/20 12:24:28;;;;;;;39.80;18.43;;;3.60;98.40;;;;;;5063660;28;20552;-82
2022/11/20 12:27:07;;;;;;;41.80;18.87;;;3.60;98.50;;;;;;5043965;28;20267;-80
2022/11/20 12:29:48;;;;;;;38.40;17.67;;;3.60;98.50;;;;;;5067547;28;20208;-80
2022/11/20 12:32:47;;;;;;;41.33;19.37;;;3.60;98.60;;;;;;5067917;28;20193;-84
2022/11/20 12:35:37;;;;;;;50.10;23.63;;;3.70;98.70;;;;;;5013637;28;20228;-73
2022/11/20 12:38:31;;;;;;;55.23;24.70;;;3.70;98.70;;;;;;5062545;28;20280;-72
2022/11/20 12:41:08;;;;;;;55.83;24.77;;;3.70;98.80;;;;;;5062801;28;20247;-72
2022/11/20 12:46:35;;;;;;;45.47;22.07;;;3.60;98.90;;;;;;5058274;28;20326;-72
2022/11/20 12:49:11;;;;;;;50.83;23.40;;;3.60;98.90;;;;;;5060093;28;20308;-72
2022/11/20 12:52:01;;;;;;;49.97;23.50;;;3.70;98.90;;;;;;5065299;28;20216;-72
2022/11/20 12:54:46;;;;;;;50.80;23.87;;;3.60;98.90;;;;;;5070867;28;20593;-73
2022/11/20 12:57:21;;;;;;;45.53;21.50;;;3.60;99.00;;;;;;5061583;28;20251;-73
2022/11/20 13:00:14;;;;;;;43.17;20.17;;;3.60;99.00;;;;;;5064448;28;20635;-71
2022/11/20 13:03:03;;;;;;;55.60;24.40;;;3.80;99.10;;;;;;5061921;28;20197;-71
2022/11/20 13:05:38;;;;;;;44.23;20.87;;;3.60;99.00;;;;;;5057533;28;20229;-72
2022/11/20 13:08:16;;;;;;;39.17;19.13;;;3.50;99.00;;;;;;5062869;28;20475;-72
2022/11/20 13:10:53;;;;;;;43.80;19.70;;;3.50;99.10;;;;;;5068415;28;20197;-72